createdAt,value
2023-02-11T00:02:08.380Z,32.90
2023-02-11T00:04:36.398Z,35.50
2023-02-11T00:07:04.345Z,34.50
2023-02-11T00:09:37.926Z,35.80
2023-02-11T00:12:06.134Z,35.90
2023-02-11T00:14:33.962Z,33.80
2023-02-11T00:17:02.369Z,34.60
2023-02-11T00:19:30.711Z,35.20
2023-02-11T00:21:59.004Z,33.40
2023-02-11T00:24:26.956Z,33.20
2023-02-11T00:26:54.829Z,33.90
2023-02-11T00:29:23.327Z,34.80
2023-02-11T00:31:51.376Z,34.60
2023-02-11T00:34:19.360Z,32.40
2023-02-11T00:36:47.205Z,34.50
2023-02-11T00:39:16.060Z,33.50
2023-02-11T00:41:44.909Z,29.20
2023-02-11T00:44:14.044Z,30.90
2023-02-11T00:46:42.082Z,30.80
2023-02-11T00:49:11.596Z,29.40
2023-02-11T00:51:39.857Z,29.80
2023-02-11T00:54:08.143Z,31.60
2023-02-11T00:56:36.492Z,31.00
2023-02-11T00:59:04.544Z,29.30
2023-02-11T01:01:33.434Z,29.70
2023-02-11T01:04:01.990Z,29.40
2023-02-11T01:06:29.980Z,30.90
2023-02-11T01:08:59.233Z,26.80
2023-02-11T01:11:27.798Z,27.50
2023-02-11T01:13:55.692Z,26.70
2023-02-11T01:16:23.992Z,29.30
2023-02-11T01:18:53.474Z,28.00
2023-02-11T01:21:21.479Z,28.70
2023-02-11T01:23:52.442Z,28.90
2023-02-11T01:26:20.278Z,26.70
2023-02-11T01:28:48.172Z,26.40
2023-02-11T01:31:16.167Z,26.20
2023-02-11T01:33:44.155Z,29.30
2023-02-11T01:36:12.812Z,28.90
2023-02-11T01:38:41.358Z,28.80
2023-02-11T01:41:10.957Z,28.20
2023-02-11T01:43:42.134Z,27.30
2023-02-11T01:46:28.655Z,27.90
2023-02-11T01:49:00.316Z,27.60
2023-02-11T01:51:35.367Z,27.20
2023-02-11T01:54:23.014Z,25.40
2023-02-11T01:57:12.160Z,29.40
2023-02-11T02:00:06.560Z,29.20
2023-02-11T02:02:52.797Z,26.90
2023-02-11T02:05:42.750Z,26.80
2023-02-11T02:08:18.386Z,27.10
2023-02-11T02:10:48.007Z,27.00
2023-02-11T02:13:18.318Z,29.60
2023-02-11T02:15:58.770Z,27.00
2023-02-11T02:18:45.475Z,27.70
2023-02-11T02:21:45.531Z,29.20
2023-02-11T02:24:35.152Z,30.10
2023-02-11T02:27:15.326Z,28.10
2023-02-11T02:30:22.103Z,30.30
2023-02-11T02:33:22.462Z,27.20
2023-02-11T02:35:57.897Z,28.10
2023-02-11T02:38:35.474Z,27.00
2023-02-11T02:41:04.967Z,28.80
2023-02-11T02:43:33.145Z,27.70
2023-02-11T02:46:16.974Z,28.10
2023-02-11T02:51:36.276Z,30.00
2023-02-11T02:54:38.661Z,32.10
2023-02-11T02:57:34.839Z,29.70
2023-02-11T03:00:26.548Z,30.50
2023-02-11T03:03:03.347Z,32.20
2023-02-11T03:05:58.770Z,31.00
2023-02-11T03:08:33.970Z,31.20
2023-02-11T03:11:01.941Z,30.40
2023-02-11T03:13:33.766Z,29.20
2023-02-11T03:16:15.900Z,29.00
2023-02-11T03:18:46.337Z,28.30
2023-02-11T03:21:14.314Z,29.60
2023-02-11T03:23:51.140Z,28.00
2023-02-11T03:26:30.321Z,31.40
2023-02-11T03:29:17.131Z,28.60
2023-02-11T03:31:49.757Z,29.90
2023-02-11T03:34:36.373Z,29.50
2023-02-11T03:37:08.083Z,28.90
2023-02-11T03:39:38.418Z,30.70
2023-02-11T03:42:06.967Z,30.90
2023-02-11T03:44:37.867Z,30.50
2023-02-11T03:47:06.010Z,31.10
2023-02-11T03:49:34.313Z,31.40
2023-02-11T03:52:03.880Z,30.10
2023-02-11T03:54:32.527Z,28.20
2023-02-11T03:57:01.157Z,26.60
2023-02-11T03:59:29.438Z,27.60
2023-02-11T04:01:59.638Z,28.20
2023-02-11T04:04:27.565Z,27.20
2023-02-11T04:06:55.777Z,26.90
2023-02-11T04:09:23.659Z,27.20
2023-02-11T04:11:51.764Z,26.80
2023-02-11T04:14:19.703Z,28.90
2023-02-11T04:16:48.073Z,28.30
2023-02-11T04:19:16.777Z,29.10
2023-02-11T04:21:44.731Z,29.50
2023-02-11T04:24:12.738Z,30.80
2023-02-11T04:26:41.080Z,28.00
2023-02-11T04:29:09.984Z,27.60
2023-02-11T04:31:37.932Z,29.70
2023-02-11T04:34:05.892Z,27.90
2023-02-11T04:36:34.868Z,31.10
2023-02-11T04:39:02.784Z,30.80
2023-02-11T04:41:31.108Z,28.60
2023-02-11T04:43:59.022Z,31.50
2023-02-11T04:46:29.340Z,28.30
2023-02-11T04:48:57.851Z,27.80
2023-02-11T04:51:25.782Z,27.30
2023-02-11T04:53:56.620Z,30.90
2023-02-11T04:56:24.635Z,27.10
2023-02-11T04:58:52.512Z,29.40
2023-02-11T05:01:20.645Z,28.30
2023-02-11T05:03:48.615Z,28.60
2023-02-11T05:06:17.059Z,29.50
2023-02-11T05:08:44.972Z,29.20
2023-02-11T05:11:23.296Z,26.80
2023-02-11T05:13:51.465Z,27.50
2023-02-11T05:16:20.720Z,29.30
2023-02-11T05:18:52.468Z,29.10
2023-02-11T05:21:20.563Z,29.10
2023-02-11T05:23:48.603Z,26.60
2023-02-11T05:26:16.690Z,27.30
2023-02-11T05:28:45.091Z,26.10
2023-02-11T05:31:14.935Z,29.80
2023-02-11T05:33:43.306Z,26.90
2023-02-11T05:36:11.969Z,26.30
2023-02-11T05:38:40.022Z,28.30
2023-02-11T05:41:07.884Z,28.10
2023-02-11T05:43:36.827Z,23.70
2023-02-11T05:46:05.226Z,25.70
2023-02-11T05:48:34.044Z,23.90
2023-02-11T05:51:03.619Z,24.70
2023-02-11T05:53:31.625Z,28.30
2023-02-11T05:55:59.834Z,27.10
2023-02-11T05:58:28.160Z,27.90
2023-02-11T06:00:56.445Z,26.90
2023-02-11T06:03:24.890Z,26.60
2023-02-11T06:05:53.285Z,26.30
2023-02-11T06:08:22.853Z,27.90
2023-02-11T06:10:54.030Z,29.00
2023-02-11T06:13:21.951Z,28.10
2023-02-11T06:16:00.148Z,33.70
2023-02-11T06:18:29.557Z,33.70
2023-02-11T06:20:57.550Z,33.70
2023-02-11T06:23:30.330Z,30.80
2023-02-11T06:26:02.312Z,33.10
2023-02-11T06:28:33.352Z,30.30
2023-02-11T06:31:06.772Z,29.50
2023-02-11T06:33:35.550Z,28.00
2023-02-11T06:36:04.213Z,29.60
2023-02-11T06:38:33.176Z,27.50
2023-02-11T06:41:01.253Z,26.90
2023-02-11T06:43:29.376Z,29.20
2023-02-11T06:45:57.311Z,28.00
2023-02-11T06:48:25.264Z,30.00
2023-02-11T06:50:53.174Z,27.60
2023-02-11T06:53:21.515Z,27.90
2023-02-11T06:55:49.536Z,29.90
2023-02-11T06:58:18.333Z,28.40
2023-02-11T07:00:46.219Z,26.70
2023-02-11T07:03:14.145Z,28.00
2023-02-11T07:05:43.137Z,28.70
2023-02-11T07:08:11.130Z,27.90
2023-02-11T07:10:42.232Z,29.20
2023-02-11T07:13:10.182Z,28.20
2023-02-11T07:15:38.510Z,27.70
2023-02-11T07:18:06.822Z,29.50
2023-02-11T07:20:37.314Z,27.90
2023-02-11T07:23:05.351Z,30.10
2023-02-11T07:25:33.276Z,26.50
2023-02-11T07:28:05.290Z,28.30
2023-02-11T07:30:34.167Z,29.60
2023-02-11T07:33:02.085Z,29.90
2023-02-11T07:35:30.195Z,30.50
2023-02-11T07:37:58.420Z,39.10
2023-02-11T07:40:26.558Z,35.40
2023-02-11T07:42:54.706Z,33.10
2023-02-11T07:45:25.365Z,33.10
2023-02-11T07:47:53.834Z,36.00
2023-02-11T07:50:21.886Z,33.60
2023-02-11T07:52:49.866Z,36.10
2023-02-11T07:55:18.260Z,33.00
2023-02-11T07:57:46.282Z,35.40
2023-02-11T08:00:15.002Z,34.10
2023-02-11T08:02:42.892Z,32.60
2023-02-11T08:05:11.248Z,34.10
2023-02-11T08:07:39.622Z,31.70
2023-02-11T08:10:08.005Z,34.20
2023-02-11T08:12:36.566Z,32.40
2023-02-11T08:15:04.760Z,36.70
2023-02-11T08:17:35.490Z,31.60
2023-02-11T08:20:04.754Z,32.60
2023-02-11T08:22:33.997Z,31.60
2023-02-11T08:25:01.982Z,36.10
2023-02-11T08:27:32.036Z,39.50
2023-02-11T08:30:00.439Z,32.40
2023-02-11T08:32:28.734Z,35.70
2023-02-11T08:34:56.971Z,33.40
2023-02-11T08:37:24.905Z,33.00
2023-02-11T08:39:52.848Z,30.60
2023-02-11T08:42:20.831Z,33.00
2023-02-11T08:44:48.736Z,31.80
2023-02-11T08:47:16.852Z,30.60
2023-02-11T08:49:45.202Z,33.40
2023-02-11T08:52:13.361Z,31.10
2023-02-11T08:54:41.587Z,31.10
2023-02-11T08:57:09.543Z,35.70
2023-02-11T08:59:40.004Z,32.60
2023-02-11T09:02:13.299Z,31.20
2023-02-11T09:04:41.228Z,32.80
2023-02-11T09:07:13.501Z,31.10
2023-02-11T09:09:42.199Z,33.30
2023-02-11T09:12:10.176Z,30.70
2023-02-11T09:14:39.246Z,30.80
2023-02-11T09:17:07.725Z,31.30
2023-02-11T09:19:36.279Z,31.30
2023-02-11T09:22:04.680Z,32.20
2023-02-11T09:24:32.821Z,31.50
2023-02-11T09:27:01.209Z,31.00
2023-02-11T09:29:29.220Z,31.80
2023-02-11T09:31:57.225Z,34.70
2023-02-11T09:34:25.072Z,33.50
2023-02-11T09:36:53.082Z,30.80
2023-02-11T09:39:20.985Z,33.30
2023-02-11T09:41:59.714Z,33.50
2023-02-11T09:44:30.340Z,31.60
2023-02-11T09:47:20.955Z,36.00
2023-02-11T09:49:51.341Z,33.00
2023-02-11T09:52:37.933Z,33.90
2023-02-11T09:55:15.274Z,35.20
2023-02-11T09:57:43.557Z,33.70
2023-02-11T10:00:23.472Z,35.40
2023-02-11T10:03:01.175Z,33.90
2023-02-11T10:05:58.273Z,32.60
2023-02-11T10:08:42.901Z,33.80
2023-02-11T10:11:56.534Z,32.70
2023-02-11T10:14:28.545Z,32.30
2023-02-11T10:17:34.423Z,31.60
2023-02-11T10:20:23.815Z,32.80
2023-02-11T10:22:57.300Z,34.60
2023-02-11T10:25:39.601Z,32.40
2023-02-11T10:28:32.234Z,31.90
2023-02-11T10:31:13.771Z,32.80
2023-02-11T10:33:58.836Z,31.60
2023-02-11T10:36:33.429Z,31.70
2023-02-11T10:39:11.876Z,31.30
2023-02-11T10:41:44.760Z,29.20
2023-02-11T10:44:28.238Z,29.90
2023-02-11T10:46:56.420Z,31.30
2023-02-11T10:49:54.099Z,30.70
2023-02-11T10:52:27.078Z,32.40
2023-02-11T10:55:01.440Z,30.90
2023-02-11T10:57:33.907Z,29.80
2023-02-11T11:00:08.608Z,31.70
2023-02-11T11:02:38.753Z,31.00
2023-02-11T11:05:16.352Z,33.20
2023-02-11T11:09:30.816Z,32.10
2023-02-11T11:11:58.634Z,32.20
2023-02-11T11:14:29.116Z,32.30
2023-02-11T11:16:57.263Z,34.70
2023-02-11T11:19:26.038Z,32.10
2023-02-11T11:21:54.938Z,32.00
2023-02-11T11:24:46.823Z,30.80
2023-02-11T11:27:19.671Z,32.40
2023-02-11T11:29:50.020Z,30.30
2023-02-11T11:32:26.233Z,35.80
2023-02-11T11:34:55.935Z,32.90
2023-02-11T11:37:27.024Z,32.00
2023-02-11T11:40:25.270Z,35.60
2023-02-11T11:43:23.037Z,33.30
2023-02-11T11:45:58.809Z,34.50
2023-02-11T11:48:32.958Z,34.70
2023-02-11T11:51:02.992Z,29.80
2023-02-11T11:54:00.493Z,31.80
2023-02-11T11:56:30.740Z,31.30
2023-02-11T11:59:00.935Z,30.30
2023-02-11T12:01:47.989Z,33.80
2023-02-11T12:04:37.908Z,34.20
2023-02-11T12:07:15.217Z,33.10
2023-02-11T12:10:04.764Z,33.90
2023-02-11T12:13:05.489Z,32.90
2023-02-11T12:15:58.784Z,33.30
2023-02-11T12:18:47.627Z,32.60
2023-02-11T12:21:39.058Z,31.80
2023-02-11T12:24:31.929Z,35.20
2023-02-11T12:27:27.127Z,33.20
2023-02-11T12:30:16.531Z,56.00
2023-02-11T12:33:04.891Z,53.50
2023-02-11T12:36:04.026Z,47.80
2023-02-11T12:38:43.094Z,32.20
2023-02-11T12:41:39.998Z,31.20
2023-02-11T12:44:11.406Z,32.10
2023-02-11T12:47:02.850Z,31.10
2023-02-11T12:49:43.010Z,35.60
2023-02-11T12:52:39.181Z,36.20
2023-02-11T12:55:20.749Z,33.00
2023-02-11T12:57:49.207Z,29.30
2023-02-11T13:00:22.920Z,27.10
2023-02-11T13:02:54.575Z,26.00
2023-02-11T13:05:49.721Z,26.50
2023-02-11T13:08:21.398Z,24.60
2023-02-11T13:10:54.106Z,25.70
2023-02-11T13:13:25.674Z,24.70
2023-02-11T13:16:09.489Z,23.70
2023-02-11T13:19:13.407Z,23.40
2023-02-11T13:22:05.978Z,22.70
2023-02-11T13:24:40.067Z,21.50
2023-02-11T13:27:28.991Z,22.40
2023-02-11T13:30:36.881Z,22.00
2023-02-11T13:33:06.825Z,17.70
2023-02-11T13:35:35.639Z,17.10
2023-02-11T13:38:16.448Z,16.40
2023-02-11T13:40:44.373Z,16.40
2023-02-11T13:43:21.796Z,18.10
2023-02-11T13:45:50.548Z,17.90
2023-02-11T13:48:27.187Z,20.10
2023-02-11T13:50:58.185Z,18.90
2023-02-11T13:53:27.912Z,20.40
2023-02-11T13:56:11.362Z,19.70
2023-02-11T13:58:49.567Z,19.10
2023-02-11T14:02:05.841Z,19.00
2023-02-11T14:04:53.384Z,18.70
2023-02-11T14:07:50.951Z,17.60
2023-02-11T14:10:41.114Z,18.10
2023-02-11T14:13:31.027Z,16.60
2023-02-11T14:16:36.863Z,21.00
2023-02-11T14:19:06.794Z,16.80
2023-02-11T14:21:38.784Z,17.90
2023-02-11T14:26:47.048Z,16.30
2023-02-11T14:29:20.119Z,16.80
2023-02-11T14:31:51.512Z,17.10
2023-02-11T14:37:14.161Z,16.20
2023-02-11T14:39:54.780Z,18.20
2023-02-11T14:42:26.917Z,17.60
2023-02-11T14:45:04.101Z,17.10
2023-02-11T14:47:58.692Z,17.70
2023-02-11T14:50:32.026Z,16.60
2023-02-11T14:53:01.164Z,17.20
2023-02-11T14:55:38.047Z,15.70
2023-02-11T14:58:29.655Z,16.70
2023-02-11T15:01:29.828Z,18.00
2023-02-11T15:04:00.548Z,15.90
2023-02-11T15:06:28.895Z,19.20
2023-02-11T15:09:01.016Z,18.10
2023-02-11T15:11:39.859Z,18.00
2023-02-11T15:14:18.870Z,17.30
2023-02-11T15:16:46.799Z,17.90
2023-02-11T15:19:34.674Z,19.80
2023-02-11T15:22:06.818Z,18.60
2023-02-11T15:24:35.589Z,19.60
2023-02-11T15:27:15.542Z,18.40
2023-02-11T15:29:45.365Z,19.30
2023-02-11T15:32:17.023Z,19.20
2023-02-11T15:34:45.869Z,20.30
2023-02-11T15:37:27.466Z,18.50
2023-02-11T15:39:56.027Z,17.60
2023-02-11T15:42:40.759Z,20.10
2023-02-11T15:45:15.395Z,19.60
2023-02-11T15:47:52.004Z,20.20
2023-02-11T15:50:31.257Z,19.00
2023-02-11T15:53:01.179Z,20.50
2023-02-11T15:55:29.192Z,21.90
2023-02-11T15:58:00.292Z,21.80
2023-02-11T16:00:34.585Z,21.30
2023-02-11T16:03:02.572Z,22.00
2023-02-11T16:05:35.757Z,19.50
2023-02-11T16:08:22.010Z,21.10
2023-02-11T16:11:08.665Z,21.50
2023-02-11T16:13:46.819Z,21.20
2023-02-11T16:16:25.653Z,24.10
2023-02-11T16:19:04.581Z,23.90
2023-02-11T16:21:39.007Z,23.20
2023-02-11T16:24:07.497Z,21.00
2023-02-11T16:26:41.041Z,22.00
2023-02-11T16:29:16.881Z,23.30
2023-02-11T16:31:46.888Z,21.80
2023-02-11T16:34:23.312Z,22.20
2023-02-11T16:36:52.146Z,22.20
2023-02-11T16:39:24.580Z,22.80
2023-02-11T16:41:52.752Z,20.50
2023-02-11T16:44:21.795Z,23.50
2023-02-11T16:46:51.980Z,23.80
2023-02-11T16:49:24.659Z,24.40
2023-02-11T16:51:54.022Z,21.40
2023-02-11T16:54:23.511Z,21.70
2023-02-11T16:56:51.368Z,21.60
2023-02-11T16:59:21.367Z,21.30
2023-02-11T17:01:49.668Z,22.20
2023-02-11T17:04:24.082Z,20.00
2023-02-11T17:06:55.996Z,21.90
2023-02-11T17:09:30.134Z,20.90
2023-02-11T17:12:01.785Z,20.80
2023-02-11T17:14:30.131Z,22.50
2023-02-11T17:16:58.250Z,21.20
2023-02-11T17:19:26.148Z,21.70
2023-02-11T17:21:54.265Z,19.90
2023-02-11T17:24:22.870Z,21.40
2023-02-11T17:26:50.882Z,21.40
2023-02-11T17:29:22.436Z,21.20
2023-02-11T17:31:52.007Z,21.30
2023-02-11T17:34:21.201Z,22.10
2023-02-11T17:36:49.384Z,22.70
2023-02-11T17:39:17.548Z,23.00
2023-02-11T17:41:46.648Z,20.10
2023-02-11T17:44:16.601Z,20.00
2023-02-11T17:46:45.142Z,20.20
2023-02-11T17:49:16.594Z,19.90
2023-02-11T17:51:50.107Z,19.70
2023-02-11T17:54:18.784Z,21.70
2023-02-11T17:56:49.286Z,21.30
2023-02-11T17:59:19.471Z,19.00
2023-02-11T18:01:47.472Z,21.20
2023-02-11T18:04:17.604Z,19.30
2023-02-11T18:06:45.542Z,19.90
2023-02-11T18:09:13.423Z,18.50
2023-02-11T18:11:41.292Z,19.90
2023-02-11T18:14:10.372Z,19.90
2023-02-11T18:16:43.113Z,19.00
2023-02-11T18:19:11.544Z,21.20
2023-02-11T18:21:39.551Z,18.50
2023-02-11T18:24:07.453Z,21.60
2023-02-11T18:26:35.498Z,21.80
2023-02-11T18:29:03.962Z,19.80
2023-02-11T18:31:31.986Z,19.30
2023-02-11T18:34:00.003Z,21.20
2023-02-11T18:36:28.385Z,21.80
2023-02-11T18:38:58.228Z,22.10
2023-02-11T18:41:29.846Z,20.90
2023-02-11T18:43:58.733Z,19.20
2023-02-11T18:46:26.769Z,21.10
2023-02-11T18:48:56.227Z,21.00
2023-02-11T18:51:24.608Z,19.60
2023-02-11T18:53:54.621Z,20.90
2023-02-11T18:56:23.673Z,20.30
2023-02-11T18:58:52.181Z,20.20
2023-02-11T19:01:24.210Z,21.80
2023-02-11T19:03:58.096Z,24.90
2023-02-11T19:06:27.429Z,22.90
2023-02-11T19:09:04.233Z,21.20
2023-02-11T19:11:49.937Z,20.90
2023-02-11T19:14:20.432Z,22.60
2023-02-11T19:16:50.771Z,24.00
2023-02-11T19:19:19.057Z,23.30
2023-02-11T19:21:48.945Z,22.30
2023-02-11T19:24:19.844Z,22.40
2023-02-11T19:26:48.565Z,21.20
2023-02-11T19:29:16.901Z,22.50
2023-02-11T19:31:45.131Z,22.80
2023-02-11T19:34:15.035Z,24.10
2023-02-11T19:36:43.302Z,23.90
2023-02-11T19:39:11.411Z,24.80
2023-02-11T19:41:39.570Z,23.70
2023-02-11T19:44:07.904Z,25.30
2023-02-11T19:46:37.571Z,24.50
2023-02-11T19:49:05.655Z,26.50
2023-02-11T19:51:37.462Z,24.80
2023-02-11T19:54:06.380Z,25.90
2023-02-11T19:56:34.356Z,26.40
2023-02-11T19:59:02.883Z,23.50
2023-02-11T20:01:31.060Z,24.70
2023-02-11T20:03:59.052Z,23.80
2023-02-11T20:06:28.679Z,27.50
2023-02-11T20:09:06.542Z,22.40
2023-02-11T20:11:34.861Z,24.10
2023-02-11T20:14:03.700Z,24.00
2023-02-11T20:16:46.900Z,25.80
2023-02-11T20:19:21.977Z,24.90
2023-02-11T20:21:53.781Z,24.20
2023-02-11T20:24:23.575Z,26.80
2023-02-11T20:26:55.959Z,25.90
2023-02-11T20:29:24.465Z,24.60
2023-02-11T20:31:52.917Z,25.70
2023-02-11T20:34:22.106Z,24.40
2023-02-11T20:36:53.535Z,24.00
2023-02-11T20:39:22.669Z,25.30
2023-02-11T20:41:51.422Z,26.00
2023-02-11T20:44:21.859Z,25.60
2023-02-11T20:46:50.240Z,26.10
2023-02-11T20:49:19.973Z,24.80
2023-02-11T20:51:49.373Z,26.70
2023-02-11T20:54:18.993Z,27.20
2023-02-11T20:56:51.257Z,29.00
2023-02-11T20:59:19.789Z,25.80
2023-02-11T21:01:53.485Z,25.20
2023-02-11T21:04:26.227Z,28.20
2023-02-11T21:06:56.082Z,27.60
2023-02-11T21:09:25.732Z,25.50
2023-02-11T21:11:57.037Z,25.80
2023-02-11T21:14:25.710Z,27.10
2023-02-11T21:16:53.592Z,27.40
2023-02-11T21:19:21.613Z,28.50
2023-02-11T21:21:49.938Z,29.40
2023-02-11T21:24:18.050Z,29.70
2023-02-11T21:26:48.981Z,29.00
2023-02-11T21:29:17.068Z,30.00
2023-02-11T21:31:45.098Z,27.20
2023-02-11T21:34:17.270Z,30.20
2023-02-11T21:36:45.459Z,29.00
2023-02-11T21:39:13.974Z,26.80
2023-02-11T21:41:41.862Z,28.10
2023-02-11T21:44:12.084Z,27.60
2023-02-11T21:46:40.336Z,26.70
2023-02-11T21:49:11.657Z,27.60
2023-02-11T21:51:39.666Z,27.30
2023-02-11T21:54:07.582Z,28.70
2023-02-11T21:56:36.652Z,29.70
2023-02-11T21:59:04.592Z,26.10
2023-02-11T22:01:33.253Z,25.60
2023-02-11T22:04:01.310Z,28.30
2023-02-11T22:06:31.428Z,30.40
2023-02-11T22:09:02.092Z,28.00
2023-02-11T22:11:32.719Z,30.30
2023-02-11T22:14:00.810Z,29.00
2023-02-11T22:16:30.715Z,26.60
2023-02-11T22:18:59.281Z,27.30
2023-02-11T22:21:28.059Z,27.30
2023-02-11T22:23:56.073Z,27.90
2023-02-11T22:26:26.502Z,28.20
2023-02-11T22:28:55.045Z,27.90
2023-02-11T22:31:28.478Z,29.00
2023-02-11T22:33:56.916Z,29.60
2023-02-11T22:36:29.743Z,27.70
2023-02-11T22:39:05.178Z,29.00
2023-02-11T22:41:33.399Z,28.90
2023-02-11T22:44:01.680Z,26.40
2023-02-11T22:46:29.865Z,26.90
2023-02-11T22:49:00.462Z,26.50
2023-02-11T22:51:29.380Z,25.90
2023-02-11T22:53:59.114Z,28.30
2023-02-11T22:56:27.825Z,27.30
2023-02-11T22:59:03.388Z,27.10
2023-02-11T23:01:31.759Z,26.00
2023-02-11T23:04:01.170Z,28.70
2023-02-11T23:06:29.237Z,28.20
2023-02-11T23:08:57.324Z,25.50
2023-02-11T23:11:29.139Z,31.90
2023-02-11T23:13:59.148Z,27.10
2023-02-11T23:16:29.141Z,31.80
2023-02-11T23:18:59.352Z,28.80
2023-02-11T23:21:29.470Z,25.70
2023-02-11T23:24:03.482Z,27.60
2023-02-11T23:28:12.458Z,27.50
2023-02-11T23:30:41.613Z,31.90
2023-02-11T23:33:09.793Z,31.40
2023-02-11T23:35:37.704Z,29.90
2023-02-11T23:38:05.694Z,25.20
2023-02-11T23:40:33.663Z,26.50
2023-02-11T23:43:01.646Z,23.80
2023-02-11T23:45:29.599Z,24.30
2023-02-11T23:47:57.498Z,26.20
2023-02-11T23:50:26.220Z,23.90
2023-02-11T23:52:54.206Z,23.60
2023-02-11T23:55:22.263Z,23.40
2023-02-11T23:57:50.234Z,24.80
